Time;durP1;ratioP1;P1;durP2;ratioP2;P2;SDS_P1;SDS_P2;PMS_P1;PMS_P2;Temp;Humidity;BMP_temperature;BMP_pressure;BME280_temperature;BME280_humidity;BME280_pressure;Samples;Min_cycle;Max_cycle;Signal;HPM_P1;HPM_P2
2022/08/27 00:01:38;;;;;;;10.75;4.70;;;;;;;22.04;100.00;98486.78;4338929;32;20473;-71
2022/08/27 00:04:11;;;;;;;6.57;4.50;;;;;;;22.26;100.00;98520.44;4339873;33;20110;-74
2022/08/27 00:06:37;;;;;;;8.10;5.03;;;;;;;21.96;100.00;98490.41;4338472;32;20077;-71
2022/08/27 00:09:04;;;;;;;5.87;4.65;;;;;;;22.26;100.00;98520.44;4339728;32;20066;-71
2022/08/27 00:11:31;;;;;;;9.63;4.40;;;;;;;22.03;100.00;98485.16;4339762;32;20121;-71
2022/08/27 00:13:57;;;;;;;12.95;4.70;;;;;;;22.24;100.00;98511.72;4340137;33;20447;-71
2022/08/27 00:16:24;;;;;;;7.03;4.12;;;;;;;22.09;100.00;98503.00;4337753;33;20066;-73
2022/08/27 00:18:53;;;;;;;6.55;4.43;;;;;;;21.95;100.00;98524.44;4340440;33;20417;-71
2022/08/27 00:21:21;;;;;;;10.10;4.87;;;;;;;21.92;100.00;98508.66;4339118;33;20185;-73
2022/08/27 00:23:47;;;;;;;6.72;5.00;;;;;;;21.73;100.00;98488.06;4331271;32;20048;-71
2022/08/27 00:26:15;;;;;;;6.18;4.40;;;;;;;22.06;100.00;98516.59;4344015;32;20206;-75
2022/08/27 00:28:42;;;;;;;5.72;4.35;;;;;;;22.23;100.00;98523.84;4308770;33;20480;-71
2022/08/27 00:31:09;;;;;;;13.30;5.18;;;;;;;22.24;100.00;98523.50;4306767;33;20079;-71
2022/08/27 00:33:36;;;;;;;9.57;5.65;;;;;;;22.11;100.00;98489.78;4321584;33;20024;-72
2022/08/27 00:36:03;;;;;;;9.48;5.37;;;;;;;22.06;100.00;98498.19;4323792;33;20074;-72
2022/08/27 00:38:29;;;;;;;8.63;4.62;;;;;;;22.22;100.00;98524.97;4294286;33;20040;-75
2022/08/27 00:40:59;;;;;;;6.40;4.05;;;;;;;22.06;100.00;98511.91;4295419;33;20199;-72
2022/08/27 00:43:32;;;;;;;7.37;4.50;;;;;;;21.86;100.00;98523.72;4295746;33;20063;-72
2022/08/27 00:46:06;;;;;;;9.75;4.70;;;;;;;22.10;100.00;98518.31;4296368;33;20033;-72
2022/08/27 00:48:35;;;;;;;16.60;4.60;;;;;;;22.03;100.00;98484.37;4294926;33;20168;-71
2022/08/27 00:51:03;;;;;;;9.70;4.93;;;;;;;21.73;100.00;98476.28;4295348;33;20202;-72
2022/08/27 00:53:32;;;;;;;5.97;4.70;;;;;;;21.92;100.00;98511.41;4295272;33;20040;-72
2022/08/27 00:56:03;;;;;;;9.32;4.35;;;;;;;21.86;100.00;98515.50;4294630;33;20038;-73
2022/08/27 00:58:36;;;;;;;7.93;4.50;;;;;;;21.89;100.00;98506.59;4316444;33;20032;-72
2022/08/27 01:01:06;;;;;;;8.32;4.55;;;;;;;21.83;100.00;98507.97;4331513;33;20045;-71
2022/08/27 01:03:34;;;;;;;10.32;5.22;;;;;;;21.60;100.00;98475.44;4324527;33;20044;-72
2022/08/27 01:06:03;;;;;;;18.40;5.35;;;;;;;21.81;100.00;98507.50;4322629;33;20422;-76
2022/08/27 01:08:36;;;;;;;6.85;5.22;;;;;;;21.89;100.00;98506.59;4311661;33;20180;-72
2022/08/27 01:11:03;;;;;;;11.82;4.53;;;;;;;21.79;100.00;98507.03;4323700;33;20032;-72
2022/08/27 01:13:32;;;;;;;6.25;4.20;;;;;;;21.80;100.00;98497.69;4324869;33;20108;-71
2022/08/27 01:15:58;;;;;;;7.47;4.47;;;;;;;21.81;100.00;98504.75;4288506;33;20489;-71
2022/08/27 01:18:27;;;;;;;8.68;4.37;;;;;;;21.65;100.00;98497.19;4288782;33;20029;-75
2022/08/27 01:21:25;;;;;;;5.80;4.40;;;;;;;21.62;100.00;98500.59;4322830;33;20045;-71
2022/08/27 01:23:57;;;;;;;13.13;4.50;;;;;;;21.59;100.00;98498.50;4292511;33;20045;-75
2022/08/27 01:26:24;;;;;;;15.27;4.45;;;;;;;21.49;100.00;98488.78;4296323;33;20466;-71
2022/08/27 01:28:51;;;;;;;14.02;4.75;;;;;;;21.40;100.00;98464.16;4280475;33;20037;-71
2022/08/27 01:31:19;;;;;;;7.75;4.30;;;;;;;21.74;100.00;98495.12;4280772;33;20431;-71
2022/08/27 01:34:14;;;;;;;12.43;4.87;;;;;;;21.52;100.00;98466.19;4282443;33;20094;-74
2022/08/27 01:36:41;;;;;;;8.50;4.93;;;;;;;21.63;100.00;98504.91;4250816;33;20054;-71
2022/08/27 01:39:07;;;;;;;9.13;5.40;;;;;;;21.64;100.00;98498.31;4250161;33;20206;-71
2022/08/27 01:41:33;;;;;;;9.55;4.95;;;;;;;21.72;100.00;98511.12;4259588;33;20365;-71
2022/08/27 01:44:00;;;;;;;7.55;3.90;;;;;;;21.62;100.00;98503.31;4265550;33;20046;-72
2022/08/27 01:46:27;;;;;;;8.77;4.65;;;;;;;21.26;100.00;98480.06;4265625;33;20030;-71
2022/08/27 01:48:54;;;;;;;9.73;4.15;;;;;;;21.73;100.00;98510.00;4266533;33;20551;-71
2022/08/27 01:51:21;;;;;;;8.40;5.43;;;;;;;21.57;100.00;98473.38;4291955;33;20115;-72
2022/08/27 01:53:47;;;;;;;16.45;4.22;;;;;;;21.75;100.00;98480.31;4275089;33;20810;-72
2022/08/27 01:56:14;;;;;;;4.78;3.85;;;;;;;22.03;100.00;98512.59;4271859;33;20037;-71
2022/08/27 01:58:42;;;;;;;14.68;4.32;;;;;;;22.03;100.00;98501.63;4281041;33;20072;-71
2022/08/27 02:01:11;;;;;;;14.30;4.00;;;;;;;22.17;100.00;98527.94;4276602;33;20104;-74
2022/08/27 02:03:39;;;;;;;10.18;4.30;;;;;;;21.75;100.00;98469.34;4280724;33;20061;-73
2022/08/27 02:06:10;;;;;;;6.93;3.62;;;;;;;22.18;100.00;98533.09;4285574;33;20033;-72
2022/08/27 02:08:36;;;;;;;8.95;3.95;;;;;;;22.16;100.00;98527.12;4285498;33;20033;-72
2022/08/27 02:11:04;;;;;;;16.73;4.43;;;;;;;22.09;100.00;98527.69;4286286;33;20063;-72
2022/08/27 02:13:30;;;;;;;14.23;4.45;;;;;;;22.09;100.00;98526.88;4322549;33;20062;-71
2022/08/27 02:15:56;;;;;;;8.30;5.55;;;;;;;21.94;100.00;98514.63;4343799;33;20065;-71
2022/08/27 02:18:23;;;;;;;8.70;4.93;;;;;;;21.83;100.00;98518.94;4345180;33;20087;-72
2022/08/27 02:20:50;;;;;;;17.52;4.20;;;;;;;21.84;100.00;98521.31;4325134;33;20124;-72
2022/08/27 02:23:17;;;;;;;28.42;5.87;;;;;;;21.72;100.00;98535.78;4312792;33;20467;-72
2022/08/27 02:25:46;;;;;;;12.88;4.53;;;;;;;21.50;100.00;98495.03;4293543;33;20432;-76
2022/08/27 02:28:13;;;;;;;9.32;4.87;;;;;;;21.74;100.00;98528.00;4295674;33;20071;-72
2022/08/27 02:30:39;;;;;;;16.23;4.80;;;;;;;21.52;100.00;98528.38;4274685;33;20067;-72
2022/08/27 02:33:06;;;;;;;5.32;4.30;;;;;;;21.19;100.00;98501.72;4269951;33;20084;-71
2022/08/27 02:35:37;;;;;;;5.72;4.40;;;;;;;21.19;100.00;98513.44;4267318;33;20027;-71
2022/08/27 02:38:04;;;;;;;7.90;4.62;;;;;;;21.02;100.00;98492.47;4259345;33;20420;-71
2022/08/27 02:40:31;;;;;;;11.35;4.75;;;;;;;21.19;100.00;98504.44;4266170;33;20061;-71
2022/08/27 02:42:58;;;;;;;9.30;4.55;;;;;;;21.04;100.00;98479.25;4280124;33;20056;-71
2022/08/27 02:45:24;;;;;;;10.30;4.75;;;;;;;20.99;100.00;98479.44;4297953;33;20059;-71
2022/08/27 02:47:50;;;;;;;9.25;5.05;;;;;;;21.10;100.00;98514.66;4311172;33;20097;-75
2022/08/27 02:50:17;;;;;;;5.70;4.20;;;;;;;20.79;100.00;98469.25;4304145;33;20111;-70
2022/08/27 02:52:44;;;;;;;10.32;5.03;;;;;;;21.39;100.00;98517.31;4299327;33;20054;-69
2022/08/27 02:55:11;;;;;;;12.15;5.35;;;;;;;21.18;100.00;98522.00;4299215;33;20059;-70
2022/08/27 02:57:38;;;;;;;10.98;4.80;;;;;;;21.05;100.00;98510.94;4277448;33;20034;-71
2022/08/27 03:00:09;;;;;;;19.95;5.57;;;;;;;21.32;100.00;98506.09;4289153;33;20068;-73
2022/08/27 03:02:35;;;;;;;9.43;5.32;;;;;;;20.95;100.00;98474.97;4306551;33;20819;-70
2022/08/27 03:05:03;;;;;;;8.25;5.45;;;;;;;21.30;100.00;98505.66;4310292;33;20058;-70
2022/08/27 03:07:30;;;;;;;7.57;4.45;;;;;;;21.39;100.00;98500.88;4314049;33;20047;-70
2022/08/27 03:09:56;;;;;;;5.95;4.68;;;;;;;21.25;100.00;98497.59;4309122;33;20390;-75
2022/08/27 03:12:23;;;;;;;11.20;5.03;;;;;;;21.41;100.00;98504.09;4308261;33;20040;-70
2022/08/27 03:14:49;;;;;;;6.90;5.15;;;;;;;21.26;100.00;98504.69;4300775;33;20021;-71
2022/08/27 03:20:02;;;;;;;8.50;4.82;;;;;;;21.38;100.00;98507.50;4322268;33;20040;-70
2022/08/27 03:22:29;;;;;;;7.18;5.03;;;;;;;20.92;100.00;98454.56;4324896;33;20103;-70
2022/08/27 03:24:55;;;;;;;5.87;4.72;;;;;;;21.26;100.00;98512.13;4322341;33;20082;-70
2022/08/27 03:27:21;;;;;;;14.23;5.15;;;;;;;20.98;100.00;98463.34;4331474;33;20036;-70
2022/08/27 03:29:48;;;;;;;7.95;4.65;;;;;;;21.32;100.00;98506.09;4350571;32;20040;-72
2022/08/27 03:32:14;;;;;;;7.55;4.80;;;;;;;21.26;100.00;98480.06;4371179;32;20075;-71
2022/08/27 03:34:41;;;;;;;10.63;4.60;;;;;;;21.46;100.00;98494.06;4341392;33;20054;-70
2022/08/27 03:37:07;;;;;;;8.63;4.72;;;;;;;21.27;100.00;98498.09;4348017;32;20036;-71
2022/08/27 03:39:33;;;;;;;7.93;4.57;;;;;;;21.21;100.00;98464.62;4347204;32;20060;-74
2022/08/27 03:42:00;;;;;;;5.00;4.03;;;;;;;21.39;100.00;98495.41;4339474;33;20062;-71
2022/08/27 03:44:26;;;;;;;8.80;4.60;;;;;;;21.15;100.00;98500.75;4340572;33;20037;-71
2022/08/27 03:46:52;;;;;;;11.23;4.10;;;;;;;21.22;100.00;98498.28;4339778;33;20062;-71
2022/08/27 03:49:20;;;;;;;9.07;5.07;;;;;;;21.09;100.00;98496.59;4340511;32;20039;-72
2022/08/27 03:51:48;;;;;;;12.15;4.85;;;;;;;21.23;100.00;98497.16;4346622;32;20421;-73
2022/08/27 03:54:14;;;;;;;13.52;4.35;;;;;;;21.23;100.00;98494.41;4340359;33;21045;-73
2022/08/27 03:56:41;;;;;;;4.62;3.95;;;;;;;21.31;100.00;98501.75;4338474;33;20478;-72
2022/08/27 03:59:07;;;;;;;6.57;4.60;;;;;;;21.39;100.00;98502.81;4336452;33;20044;-72
2022/08/27 04:01:34;;;;;;;7.00;4.40;;;;;;;21.56;100.00;98501.94;4335493;33;20056;-72
2022/08/27 04:04:02;;;;;;;9.50;4.65;;;;;;;21.38;100.00;98488.34;4336984;33;20028;-72
2022/08/27 04:06:29;;;;;;;6.82;4.35;;;;;;;21.48;100.00;98497.28;4346453;32;20078;-71
2022/08/27 04:08:55;;;;;;;6.75;4.50;;;;;;;21.53;100.00;98494.38;4355925;32;20490;-71
2022/08/27 04:11:22;;;;;;;6.68;4.65;;;;;;;21.38;100.00;98465.62;4352426;32;20067;-70
2022/08/27 04:13:49;;;;;;;5.93;4.70;;;;;;;21.63;100.00;98498.63;4352713;32;20040;-71
2022/08/27 04:16:15;;;;;;;25.02;5.20;;;;;;;21.76;100.00;98503.84;4357262;32;20100;-72
2022/08/27 04:18:42;;;;;;;6.28;5.05;;;;;;;21.81;100.00;98496.53;4356887;32;20059;-72
2022/08/27 04:21:10;;;;;;;16.37;4.72;;;;;;;21.55;100.00;98451.00;4355568;32;20049;-72
2022/08/27 04:23:38;;;;;;;11.07;4.55;;;;;;;21.68;100.00;98462.81;4360162;32;20083;-71
2022/08/27 04:26:06;;;;;;;5.55;4.95;;;;;;;21.90;100.00;98494.50;4340839;33;20079;-78
2022/08/27 04:28:33;;;;;;;11.75;4.70;;;;;;;21.60;100.00;98480.94;4340402;32;20052;-70
2022/08/27 04:31:01;;;;;;;9.63;5.00;;;;;;;21.90;100.00;98487.06;4339895;32;20039;-73
2022/08/27 04:33:31;;;;;;;8.35;5.15;;;;;;;21.70;100.00;98453.13;4326398;33;20048;-72
2022/08/27 04:36:02;;;;;;;7.15;4.65;;;;;;;21.82;100.00;98489.91;4331186;33;20339;-74
2022/08/27 04:38:29;;;;;;;10.32;4.68;;;;;;;21.96;100.00;98484.94;4325240;33;20060;-71
2022/08/27 04:41:19;;;;;;;12.23;4.68;;;;;;;21.70;100.00;98455.03;4323723;33;20339;-72
2022/08/27 04:43:56;;;;;;;10.45;4.43;;;;;;;21.72;100.00;98497.41;4323317;33;20084;-75
2022/08/27 04:46:27;;;;;;;8.52;5.70;;;;;;;21.77;100.00;98499.94;4335224;33;20053;-72
2022/08/27 04:48:57;;;;;;;9.00;4.50;;;;;;;21.81;100.00;98494.59;4309209;33;20079;-71
2022/08/27 04:51:24;;;;;;;6.18;5.22;;;;;;;21.71;100.00;98501.28;4308200;33;20427;-71
2022/08/27 04:53:51;;;;;;;10.00;4.90;;;;;;;21.81;100.00;98504.75;4307181;33;20041;-75
2022/08/27 04:56:21;;;;;;;8.40;4.47;;;;;;;21.59;100.00;98474.66;4310319;33;20064;-71
2022/08/27 04:58:49;;;;;;;6.12;4.32;;;;;;;21.80;100.00;98503.16;4309678;33;20434;-71
2022/08/27 05:01:24;;;;;;;19.27;6.07;;;;;;;21.70;100.00;98499.69;4294346;33;20406;-71
2022/08/27 05:03:53;;;;;;;9.80;5.45;;;;;;;21.91;100.00;98493.38;4298499;33;20171;-73
2022/08/27 05:06:21;;;;;;;12.90;5.75;;;;;;;22.00;100.00;98507.78;4309435;33;20085;-79
2022/08/27 05:08:48;;;;;;;15.23;4.70;;;;;;;22.09;100.00;98505.75;4309630;33;20063;-70
2022/08/27 05:11:18;;;;;;;6.93;5.00;;;;;;;22.26;100.00;98509.47;4308731;33;20106;-69
2022/08/27 05:13:45;;;;;;;14.43;4.68;;;;;;;22.18;100.00;98458.25;4274813;33;20411;-71
2022/08/27 05:16:14;;;;;;;14.02;4.95;;;;;;;22.56;100.00;98506.53;4268805;33;20112;-73
2022/08/27 05:18:41;;;;;;;8.25;4.75;;;;;;;22.64;100.00;98503.69;4280513;33;20056;-73
2022/08/27 05:21:08;;;;;;;15.75;5.32;;;;;;;22.73;100.00;98506.31;4295465;33;20073;-73
2022/08/27 05:23:35;;;;;;;10.30;4.72;;;;;;;22.69;100.00;98505.41;4292810;33;20033;-73
2022/08/27 05:26:01;;;;;;;11.82;5.65;;;;;;;22.87;100.00;98503.22;4305284;33;20408;-74
2022/08/27 05:28:28;;;;;;;11.23;5.45;;;;;;;22.89;100.00;98502.88;4308530;33;20036;-76
2022/08/27 05:31:03;;;;;;;9.43;5.87;;;;;;;22.97;100.00;98499.19;4301731;33;20063;-70
2022/08/27 05:33:30;;;;;;;9.98;4.70;;;;;;;22.99;100.00;98503.22;4310971;33;20067;-75
2022/08/27 05:35:58;;;;;;;16.65;6.20;;;;;;;22.88;100.00;98468.34;4314101;33;20062;-71
2022/08/27 05:38:26;;;;;;;15.30;4.47;;;;;;;23.19;100.00;98498.72;4319707;33;20103;-71
2022/08/27 05:41:07;;;;;;;10.98;5.57;;;;;;;23.03;100.00;98470.38;4321764;33;20441;-72
2022/08/27 05:43:35;;;;;;;8.27;4.47;;;;;;;23.39;100.00;98504.41;4279173;33;20080;-79
2022/08/27 05:46:05;;;;;;;11.98;5.53;;;;;;;23.30;100.00;98501.00;4291237;33;20059;-70
2022/08/27 05:48:32;;;;;;;6.07;4.97;;;;;;;23.41;100.00;98496.62;4309635;33;20170;-69
2022/08/27 05:51:16;;;;;;;13.82;5.25;;;;;;;23.18;100.00;98455.16;4314794;33;20028;-71
2022/08/27 05:53:43;;;;;;;12.13;6.32;;;;;;;23.55;100.00;98491.53;4293382;33;20049;-71
2022/08/27 05:56:14;;;;;;;12.30;5.28;;;;;;;23.64;100.00;98493.34;4304882;33;20051;-70
2022/08/27 06:01:27;;;;;;;11.43;5.37;;;;;;;23.45;100.00;98491.22;4318044;33;20036;-70
2022/08/27 06:03:53;;;;;;;16.08;5.32;;;;;;;23.42;100.00;98519.41;4292109;33;20168;-70
2022/08/27 06:06:21;;;;;;;21.30;6.78;;;;;;;23.55;100.00;98507.22;4290472;33;20059;-70
2022/08/27 06:08:50;;;;;;;12.15;5.45;;;;;;;23.37;100.00;98473.75;4293558;33;20063;-72
2022/08/27 06:11:18;;;;;;;12.20;5.55;;;;;;;23.52;100.00;98508.72;4290354;33;20083;-71
2022/08/27 06:13:45;;;;;;;7.60;6.00;;;;;;;23.65;100.00;98505.94;4294101;33;20330;-72
2022/08/27 06:16:15;;;;;;;11.43;5.25;;;;;;;23.76;100.00;98501.53;4277372;33;20054;-72
2022/08/27 06:18:44;;;;;;;15.70;5.85;;;;;;;23.73;100.00;98507.72;4276835;33;20205;-72
2022/08/27 06:21:13;;;;;;;20.48;5.70;;;;;;;23.69;100.00;98495.84;4275427;33;20049;-74
2022/08/27 06:23:39;;;;;;;10.77;4.97;;;;;;;23.81;100.00;98498.53;4278319;33;20075;-71
2022/08/27 06:26:09;;;;;;;12.52;7.12;;;;;;;23.85;100.00;98504.94;4292752;33;20453;-72
2022/08/27 06:28:36;;;;;;;16.98;6.65;;;;;;;23.98;100.00;98502.13;4308730;33;20517;-70
2022/08/27 06:31:06;;;;;;;10.77;4.95;;;;;;;24.04;100.00;98506.22;4307104;33;20370;-74
2022/08/27 06:33:33;;;;;;;8.52;5.93;;;;;;;23.92;100.00;98493.38;4308961;33;20134;-71
2022/08/27 06:36:05;;;;;;;14.85;6.65;;;;;;;23.86;100.00;98462.56;4335180;33;20044;-71
2022/08/27 06:38:33;;;;;;;13.43;6.87;;;;;;;24.11;100.00;98512.72;4337943;33;20040;-72
2022/08/27 06:41:02;;;;;;;13.52;6.62;;;;;;;24.12;100.00;98508.00;4344440;33;20039;-80
2022/08/27 06:43:29;;;;;;;10.77;5.90;;;;;;;24.29;100.00;98491.16;4333717;33;20066;-71
2022/08/27 06:45:55;;;;;;;11.23;6.22;;;;;;;24.32;100.00;98508.13;4326584;33;20129;-70
2022/08/27 06:48:22;;;;;;;9.73;5.95;;;;;;;24.39;100.00;98506.34;4362331;32;20079;-71
2022/08/27 06:50:48;;;;;;;8.82;6.20;;;;;;;24.43;100.00;98506.47;4349740;32;20063;-77
2022/08/27 06:53:15;;;;;;;8.05;5.90;;;;;;;24.66;100.00;98493.66;4352749;32;20079;-71
2022/08/27 06:55:44;;;;;;;9.80;6.40;;;;;;;24.59;100.00;98493.50;4344802;33;20040;-73
2022/08/27 06:58:11;;;;;;;9.05;6.60;;;;;;;24.66;100.00;98471.66;4352888;32;20446;-74
2022/08/27 07:00:38;;;;;;;16.27;5.28;;;;;;;24.53;100.00;98439.88;4350471;32;20039;-73
2022/08/27 07:03:05;;;;;;;12.63;5.53;;;;;;;24.99;100.00;98505.44;4349756;32;20125;-73
2022/08/27 07:05:33;;;;;;;16.95;6.05;;;;;;;25.07;100.00;98517.44;4346882;32;20070;-72
2022/08/27 07:08:01;;;;;;;10.73;5.32;;;;;;;24.56;100.00;98477.72;4311408;33;20060;-72
2022/08/27 07:10:28;;;;;;;8.68;5.53;;;;;;;24.77;100.00;98504.16;4312661;33;20161;-71
2022/08/27 07:12:55;;;;;;;15.07;5.85;;;;;;;24.91;100.00;98471.44;4310323;33;20491;-79
2022/08/27 07:15:22;;;;;;;13.80;6.30;;;;;;;25.24;100.00;98503.25;4279903;33;20077;-73
2022/08/27 07:17:49;;;;;;;8.90;5.47;;;;;;;25.18;100.00;98501.94;4251494;33;20034;-73
2022/08/27 07:20:18;;;;;;;8.75;5.40;;;;;;;25.24;100.00;98507.94;4247515;33;20043;-73
2022/08/27 07:22:45;;;;;;;11.27;5.93;;;;;;;25.21;100.00;98506.72;4277117;33;20051;-75
2022/08/27 07:25:18;;;;;;;15.23;6.32;;;;;;;25.15;100.00;98508.16;4296278;33;20074;-72
2022/08/27 07:27:45;;;;;;;10.82;5.87;;;;;;;25.27;100.00;98513.53;4271164;33;20033;-72
2022/08/27 07:30:14;;;;;;;15.32;5.85;;;;;;;25.37;100.00;98520.50;4265738;33;20463;-71
2022/08/27 07:32:45;;;;;;;16.12;6.18;;;;;;;25.32;100.00;98507.78;4265324;33;20037;-74
2022/08/27 07:35:12;;;;;;;15.52;5.70;;;;;;;25.15;100.00;98469.59;4249377;33;20109;-72
2022/08/27 07:37:40;;;;;;;7.15;5.28;;;;;;;25.29;100.00;98511.25;4214679;33;20043;-73
2022/08/27 07:40:13;;;;;;;8.13;6.28;;;;;;;25.29;100.00;98503.00;4233603;33;20327;-73
2022/08/27 07:45:27;;;;;;;11.82;5.65;;;;;;;25.37;100.00;98502.00;4241106;33;20111;-73
2022/08/27 07:47:54;;;;;;;8.50;6.03;;;;;;;25.47;100.00;98499.81;4252180;33;20055;-72
2022/08/27 07:50:22;;;;;;;18.92;6.15;;;;;;;25.57;100.00;98507.50;4228665;33;20426;-76
2022/08/27 07:52:49;;;;;;;12.07;5.37;;;;;;;25.62;100.00;98498.94;4233162;33;20757;-72
2022/08/27 07:55:17;;;;;;;12.55;6.18;;;;;;;25.73;100.00;98499.94;4236125;33;20456;-72
2022/08/27 07:57:44;;;;;;;11.98;5.78;;;;;;;25.73;100.00;98501.91;4235815;33;20043;-71
2022/08/27 08:00:11;;;;;;;9.73;5.22;;;;;;;25.62;100.00;98479.63;4247531;33;20030;-75
2022/08/27 08:02:40;;;;;;;12.07;6.37;;;;;;;25.82;100.00;98509.97;4249834;33;20456;-71
2022/08/27 08:05:08;;;;;;;7.25;5.25;;;;;;;25.88;100.00;98483.66;4243863;33;20078;-70
2022/08/27 08:07:37;;;;;;;12.45;5.80;;;;;;;26.17;100.00;98500.78;4258629;33;20079;-74
2022/08/27 08:10:06;;;;;;;6.85;5.18;;;;;;;26.35;100.00;98512.13;4298879;33;20041;-72
2022/08/27 08:12:35;;;;;;;9.93;5.50;;;;;;;26.33;100.00;98508.97;4286232;33;20038;-74
2022/08/27 08:15:02;;;;;;;24.25;6.43;;;;;;;26.32;100.00;98502.62;4291337;33;20037;-72
2022/08/27 08:17:32;;;;;;;8.80;5.30;;;;;;;26.34;100.00;98505.81;4289889;33;20049;-72
2022/08/27 08:19:58;;;;;;;14.65;5.00;;;;;;;26.54;98.22;98511.28;4325839;33;20191;-73
2022/08/27 08:22:26;;;;;;;10.27;5.10;;;;;;;26.64;100.00;98518.91;4354062;32;20109;-73
2022/08/27 08:24:53;;;;;;;7.10;5.12;;;;;;;26.43;100.00;98476.00;4364693;32;20048;-73
2022/08/27 08:27:20;;;;;;;10.88;5.05;;;;;;;26.73;95.41;98519.50;4381141;32;20086;-73
2022/08/27 08:29:47;;;;;;;10.05;5.57;;;;;;;26.75;95.08;98492.31;4373061;32;20129;-73
2022/08/27 08:32:14;;;;;;;13.52;5.70;;;;;;;26.76;96.61;98482.88;4375174;32;20049;-77
2022/08/27 08:34:41;;;;;;;9.48;5.37;;;;;;;26.93;97.32;98519.41;4368108;32;20036;-71
2022/08/27 08:37:07;;;;;;;14.27;5.60;;;;;;;26.98;100.00;98521.84;4374068;32;20083;-71
2022/08/27 08:39:36;;;;;;;18.55;11.07;;;;;;;27.11;100.00;98523.22;4374918;32;20069;-71
2022/08/27 08:42:09;;;;;;;7.15;4.85;;;;;;;27.10;100.00;98518.88;4374359;32;20036;-71
2022/08/27 08:44:41;;;;;;;7.55;5.53;;;;;;;27.10;100.00;98529.91;4371918;32;20124;-78
2022/08/27 08:47:20;;;;;;;6.18;4.40;;;;;;;27.12;100.00;98532.31;4341475;32;20056;-73
2022/08/27 08:50:05;;;;;;;7.15;4.95;;;;;;;27.24;97.74;98517.50;4337876;33;20070;-72
2022/08/27 08:52:42;;;;;;;7.72;5.22;;;;;;;27.42;96.27;98529.59;4337169;32;20078;-72
2022/08/27 08:55:42;;;;;;;11.50;5.05;;;;;;;27.51;93.80;98527.34;4341230;32;20393;-72
2022/08/27 08:58:25;;;;;;;10.25;5.00;;;;;;;27.37;83.29;98525.19;4335694;32;20056;-71
2022/08/27 09:00:57;;;;;;;9.10;4.93;;;;;;;27.53;89.63;98519.47;4340939;32;20051;-72
2022/08/27 09:03:25;;;;;;;8.30;4.30;;;;;;;27.46;88.43;98513.88;4319601;33;20036;-75
2022/08/27 09:06:06;;;;;;;7.00;5.47;;;;;;;27.69;82.00;98521.25;4318409;33;20078;-75
2022/08/27 09:08:39;;;;;;;7.57;4.85;;;;;;;27.64;80.89;98518.81;4320982;33;20028;-72
2022/08/27 09:11:15;;;;;;;7.15;4.80;;;;;;;27.70;85.00;98522.84;4322348;33;20068;-81
2022/08/27 09:13:49;;;;;;;8.55;4.82;;;;;;;27.73;87.13;98527.59;4318994;33;20056;-72
2022/08/27 09:16:17;;;;;;;10.10;5.53;;;;;;;27.56;89.48;98492.25;4306624;33;20079;-71
2022/08/27 09:18:44;;;;;;;7.10;5.15;;;;;;;27.69;89.41;98527.56;4315173;33;20420;-77
2022/08/27 09:21:22;;;;;;;10.93;4.80;;;;;;;27.53;79.25;98489.06;4341164;32;20353;-75
2022/08/27 09:24:14;;;;;;;10.23;4.70;;;;;;;27.89;83.44;98519.91;4320692;33;20048;-73
2022/08/27 09:26:43;;;;;;;7.10;4.70;;;;;;;27.94;78.32;98521.56;4290202;33;20422;-74
2022/08/27 09:29:18;;;;;;;13.27;5.00;;;;;;;27.92;73.32;98496.19;4294673;33;20056;-73
2022/08/27 09:31:46;;;;;;;5.50;4.65;;;;;;;28.13;71.45;98523.34;4291329;33;21330;-73
2022/08/27 09:34:14;;;;;;;14.18;4.15;;;;;;;28.21;61.64;98519.47;4295134;33;20049;-78
2022/08/27 09:36:52;;;;;;;10.63;4.47;;;;;;;28.36;71.75;98509.31;4290867;33;20074;-73
2022/08/27 09:39:27;;;;;;;9.07;5.40;;;;;;;28.29;61.27;98530.59;4296365;33;20055;-73
2022/08/27 09:41:54;;;;;;;7.62;5.37;;;;;;;27.78;56.25;98496.03;4294011;33;20060;-73
2022/08/27 09:44:21;;;;;;;9.38;4.47;;;;;;;28.20;56.62;98526.16;4291753;33;20071;-73
2022/08/27 09:47:00;;;;;;;5.68;4.50;;;;;;;28.33;55.49;98523.13;4300438;33;20066;-73
2022/08/27 09:49:29;;;;;;;12.73;4.60;;;;;;;28.07;62.31;98486.13;4315159;33;20056;-72
2022/08/27 09:51:56;;;;;;;9.00;4.68;;;;;;;28.42;55.45;98520.84;4311690;33;20094;-87
2022/08/27 09:54:39;;;;;;;12.18;4.87;;;;;;;28.53;61.28;98521.75;4315632;33;20055;-74
2022/08/27 09:57:08;;;;;;;11.55;4.30;;;;;;;28.52;56.30;98511.81;4333446;32;20075;-76
2022/08/27 09:59:52;;;;;;;8.30;3.78;;;;;;;28.55;51.58;98500.00;4357158;32;20095;-73
2022/08/27 10:02:23;;;;;;;10.18;4.20;;;;;;;28.54;52.20;98481.78;4353728;32;20163;-72
2022/08/27 10:04:52;;;;;;;8.90;3.83;;;;;;;28.51;51.72;98482.53;4353048;32;20035;-71
2022/08/27 10:07:42;;;;;;;5.70;4.93;;;;;;;28.67;51.34;98511.97;4352377;32;20027;-75
2022/08/27 10:10:27;;;;;;;10.75;5.00;;;;;;;28.74;53.41;98484.34;4355775;32;20090;-70
2022/08/27 10:12:54;;;;;;;13.18;4.82;;;;;;;28.95;54.05;98517.72;4357747;32;20052;-73
2022/08/27 10:15:26;;;;;;;7.12;4.35;;;;;;;28.97;52.03;98520.88;4352874;32;20052;-70
2022/08/27 10:18:01;;;;;;;;;;;;;;;29.00;55.22;98486.09;4364112;32;20047;-69
2022/08/27 10:21:00;;;;;;;24.37;4.32;;;;;;;29.11;55.38;98508.31;4344484;32;20100;-70
2022/08/27 10:23:41;;;;;;;11.73;4.82;;;;;;;29.09;53.65;98510.69;4308009;33;20161;-71
2022/08/27 10:26:29;;;;;;;6.37;4.22;;;;;;;29.21;49.86;98507.59;4308670;33;20028;-76
2022/08/27 10:29:27;;;;;;;25.35;5.50;;;;;;;29.19;47.36;98515.53;4310336;33;20060;-71
2022/08/27 10:32:00;;;;;;;8.55;4.87;;;;;;;29.19;50.53;98509.97;4326241;33;20059;-70
2022/08/27 10:34:42;;;;;;;8.95;4.22;;;;;;;29.32;50.14;98507.66;4307600;33;20048;-71
2022/08/27 10:37:26;;;;;;;9.93;4.25;;;;;;;29.31;48.82;98484.72;4313658;33;20052;-69
2022/08/27 10:40:26;;;;;;;8.38;3.95;;;;;;;29.61;49.30;98513.34;4293969;33;20037;-70
2022/08/27 10:43:08;;;;;;;13.43;4.70;;;;;;;29.64;47.22;98507.00;4237142;33;20090;-71
2022/08/27 10:45:43;;;;;;;;;;;;;;;29.73;50.30;98521.31;4258910;33;20099;-70
2022/08/27 10:48:23;;;;;;;7.10;4.18;;;;;;;29.91;49.61;98515.84;4253244;33;19951;-78
2022/08/27 10:51:02;;;;;;;11.65;4.22;;;;;;;29.70;44.29;98514.56;4220218;34;20097;-70
2022/08/27 10:53:43;;;;;;;7.55;4.93;;;;;;;29.64;45.88;98485.59;4193817;34;20043;-71
2022/08/27 10:56:31;;;;;;;10.43;4.35;;;;;;;29.94;47.89;98509.50;4179050;34;20078;-71
2022/08/27 10:59:04;;;;;;;16.40;4.18;;;;;;;29.95;45.81;98519.44;4167144;34;20041;-71
2022/08/27 11:01:38;;;;;;;13.45;4.40;;;;;;;29.71;43.46;98516.16;4156311;34;20032;-80
2022/08/27 11:04:12;;;;;;;8.77;3.42;;;;;;;30.05;46.13;98507.56;4174526;34;20093;-70
2022/08/27 11:06:41;;;;;;;11.57;4.93;;;;;;;29.40;39.73;98486.31;4180245;34;20046;-70
2022/08/27 11:09:24;;;;;;;4.85;3.90;;;;;;;29.53;40.44;98495.88;4182670;34;20039;-70
2022/08/27 11:11:57;;;;;;;4.93;3.95;;;;;;;30.03;38.24;98523.81;4225690;33;20051;-70
2022/08/27 11:14:33;;;;;;;27.05;5.20;;;;;;;30.73;39.52;98520.75;4250752;33;20038;-70
2022/08/27 11:17:36;;;;;;;15.50;4.35;;;;;;;30.56;39.09;98522.31;4282550;33;20430;-70
2022/08/27 11:20:11;;;;;;;8.50;3.22;;;;;;;30.64;38.73;98517.56;4292561;33;20063;-70
2022/08/27 11:22:46;;;;;;;9.23;4.37;;;;;;;30.98;40.26;98492.13;4301303;33;20445;-78
2022/08/27 11:25:38;;;;;;;6.80;4.78;;;;;;;31.22;38.83;98514.72;4323668;33;20070;-69
2022/08/27 11:28:07;;;;;;;10.77;3.75;;;;;;;30.57;36.68;98515.59;4367185;32;20057;-71
2022/08/27 11:30:47;;;;;;;4.72;3.50;;;;;;;30.97;40.30;98490.56;4371343;32;20065;-70
2022/08/27 11:33:29;;;;;;;12.13;5.25;;;;;;;31.49;39.09;98510.25;4350453;33;20036;-70
2022/08/27 11:36:14;;;;;;;15.65;4.72;;;;;;;31.76;37.76;98478.38;4335493;33;20113;-74
2022/08/27 11:39:02;;;;;;;8.25;3.83;;;;;;;32.18;37.89;98507.97;4337940;33;20049;-70
2022/08/27 11:42:05;;;;;;;17.10;4.20;;;;;;;32.05;38.75;98507.63;4324753;33;20072;-74
2022/08/27 11:44:39;;;;;;;7.80;3.72;;;;;;;32.13;35.09;98502.81;4326560;33;20423;-71
2022/08/27 11:47:13;;;;;;;15.07;4.40;;;;;;;32.05;32.91;98504.03;4334644;33;20373;-69
2022/08/27 11:49:49;;;;;;;7.95;3.78;;;;;;;31.99;32.11;98484.19;4339070;33;20574;-69